Andrews, NC

4:27 AM EDT on October 18, 2017 (GMT -0400)
Andrews

Weather History for KRHP - November, 2013

Change the Weather History Date:

Friday, November 1, 2013

  Actual Average (KMMI) Record (KMMI)
Temperature  
Mean Temperature 58 °F -  
Max Temperature 72 °F 68 °F 84 °F (2016)
Min Temperature 43 °F 44 °F 33 °F (2014)
Degree Days  
Heating Degree Days 7    
Growing Degree Days 8 (Base 50)    
Moisture  
Dew Point 52 °F    
Average Humidity 76    
Maximum Humidity 100    
Minimum Humidity 36    
Precipitation  
Precipitation 0.00 in - - ()
Sea Level Pressure  
Sea Level Pressure 29.80 in    
Wind  
Wind Speed 6 mph (WSW)    
Max Wind Speed 14 mph    
Max Gust Speed 22 mph    
Visibility 9 miles    
Events Rain    
Averages and records for this station are not official NWS values.
T = Trace of Precipitation, MM = Missing Value Source: NWS Daily Summary

Daily Weather History Graph

Daily Weather History Graph

Search for Another Location

Airport or City:

Trip Planner

Search our weather history database for the weather conditions in past years. The results will help you decide how hot, cold, wet, or windy it might be!

Date:

Astronomy

Nov. 01, 2013 Rise Set
Actual Time 7:56 AM EDT 6:40 PM EDT
Civil Twilight 7:30 AM EDT 7:06 PM EDT
Nautical Twilight 7:00 AM EDT 7:36 PM EDT
Astronomical Twilight 6:31 AM EDT 8:06 PM EDT
Moon 5:52 AM EDT (11/1) 5:29 PM EDT (11/1)
Length of Visible Light 11h 36m
Length of Day
10h 43m
Waning Crescent, 4% of the Moon is Illuminated
Nov 1
Waning Crescent
Nov 3
New
Nov 10
First Quarter
Nov 17
Full
Nov 25
Last Quarter

Hourly Weather History & Observations

Time (EDT) Temp. Dew Point Humidity Pressure Visibility Wind Dir Wind Speed Gust Speed Precip Events Conditions
12:15 AM 66.4 °F 59.0 °F 77% 29.84 in 10.0 mi SW 10.4 mph 20.7 mph N/A   Overcast
12:35 AM 66.9 °F 58.8 °F 75% 29.84 in 10.0 mi SSW 11.5 mph 21.9 mph N/A   Overcast
12:55 AM 66.9 °F 59.0 °F 76% 29.83 in 10.0 mi SW 8.1 mph - N/A   Overcast
1:15 AM 67.1 °F 59.0 °F 75% 29.82 in 10.0 mi SW 8.1 mph 20.7 mph N/A   Overcast
1:35 AM 66.7 °F 59.2 °F 77% 29.81 in 10.0 mi SSW 5.8 mph 16.1 mph N/A Rain Light Rain
1:55 AM 66.9 °F 59.0 °F 76% 29.81 in 10.0 mi Calm Calm - N/A   Overcast
2:15 AM 66.2 °F 59.5 °F 79% 29.80 in 10.0 mi SSW 6.9 mph - N/A Rain Light Rain
2:35 AM 63.5 °F 61.2 °F 92% 29.81 in 4.0 mi WSW 9.2 mph - N/A Rain Rain
3:15 AM 63.9 °F 60.8 °F 90% 29.79 in 10.0 mi West 8.1 mph 18.4 mph N/A   Overcast
3:35 AM 63.5 °F 61.0 °F 91% 29.78 in 10.0 mi West 10.4 mph - N/A   Light Drizzle
3:55 AM 63.1 °F 61.2 °F 93% 29.78 in 10.0 mi West 5.8 mph - N/A   Overcast
4:15 AM 63.5 °F 60.8 °F 91% 29.77 in 10.0 mi West 9.2 mph 17.3 mph N/A Rain Light Rain
4:35 AM 63.0 °F 61.0 °F 93% 29.76 in 5.0 mi West 6.9 mph - N/A Rain Rain
4:55 AM 62.6 °F 61.0 °F 94% 29.76 in 5.0 mi West 6.9 mph - N/A Rain Rain
5:15 AM 62.6 °F 60.8 °F 94% 29.75 in 4.0 mi West 10.4 mph 17.3 mph N/A Rain Rain
5:35 AM 62.2 °F 61.0 °F 96% 29.77 in 5.0 mi West 10.4 mph - N/A Rain Rain
5:55 AM 62.1 °F 60.8 °F 96% 29.80 in 5.0 mi WSW 8.1 mph - N/A Rain Rain
6:15 AM 62.2 °F 59.2 °F 90% 29.80 in 10.0 mi WSW 5.8 mph - N/A   Overcast
6:35 AM 61.2 °F 58.3 °F 90% 29.80 in 10.0 mi SSE 4.6 mph - N/A   Overcast
6:55 AM 60.3 °F 58.8 °F 95% 29.81 in 10.0 mi Calm Calm - N/A   Overcast
7:15 AM 59.7 °F 58.5 °F 96% 29.83 in 10.0 mi Calm Calm - N/A   Overcast
7:35 AM 59.5 °F 57.9 °F 94% 29.82 in 10.0 mi Calm Calm - N/A   Overcast
7:55 AM 58.5 °F 57.2 °F 96% 29.82 in 10.0 mi Calm Calm - N/A   Overcast
8:15 AM 57.4 °F 56.7 °F 97% 29.84 in 10.0 mi Calm Calm - N/A   Scattered Clouds
8:35 AM 55.4 °F 55.4 °F 100% 29.85 in 5.0 mi Calm Calm - N/A   Scattered Clouds
8:55 AM 57.4 °F 57.2 °F 99% 29.85 in 7.0 mi Calm Calm - N/A   Scattered Clouds
9:15 AM 58.5 °F 57.9 °F 98% 29.85 in 10.0 mi Calm Calm - N/A   Scattered Clouds
9:35 AM 61.0 °F 57.7 °F 89% 29.85 in 10.0 mi Calm Calm - N/A   Clear
9:55 AM 62.6 °F 56.7 °F 81% 29.85 in 10.0 mi SSW 4.6 mph - N/A   Clear
10:15 AM 62.8 °F 55.8 °F 78% 29.85 in 10.0 mi SW 6.9 mph - N/A   Clear
10:35 AM 63.9 °F 55.0 °F 73% 29.85 in 10.0 mi SSW 4.6 mph - N/A   Clear
10:55 AM 64.9 °F 53.6 °F 67% 29.84 in 10.0 mi WSW 8.1 mph - N/A   Scattered Clouds
11:15 AM 65.5 °F 53.8 °F 66% 29.84 in 10.0 mi SW 6.9 mph - N/A   Clear
11:35 AM 66.2 °F 52.3 °F 61% 29.83 in 10.0 mi SSW 8.1 mph - N/A   Clear
11:55 AM 66.2 °F 53.2 °F 63% 29.82 in 10.0 mi SW 5.8 mph - N/A   Clear
12:15 PM 67.5 °F 53.1 °F 60% 29.81 in 10.0 mi SSW 5.8 mph - N/A   Clear
12:35 PM 67.8 °F 51.3 °F 55% 29.80 in 10.0 mi SSW 4.6 mph - N/A   Clear
12:55 PM 69.3 °F 49.5 °F 49% 29.80 in 10.0 mi SW 8.1 mph - N/A   Clear
1:15 PM 70.2 °F 47.7 °F 45% 29.80 in 10.0 mi WSW 9.2 mph 16.1 mph N/A   Clear
1:35 PM 70.2 °F 44.8 °F 40% 29.79 in 10.0 mi West 9.2 mph 17.3 mph N/A   Clear
1:55 PM 70.9 °F 45.9 °F 41% 29.78 in 10.0 mi SW 10.4 mph 17.3 mph N/A   Clear
2:15 PM 71.6 °F 46.0 °F 40% 29.77 in 10.0 mi West 13.8 mph - N/A   Clear
2:35 PM 71.4 °F 46.2 °F 41% 29.76 in 10.0 mi West 6.9 mph - N/A   Clear
2:55 PM 72.3 °F 44.8 °F 37% 29.74 in 10.0 mi WSW 10.4 mph - N/A   Clear
3:15 PM 72.5 °F 44.4 °F 36% 29.74 in 10.0 mi WSW 12.7 mph 19.6 mph N/A   Clear
3:35 PM 72.1 °F 43.7 °F 36% 29.73 in 10.0 mi West 11.5 mph - N/A   Clear
3:55 PM 72.0 °F 43.5 °F 36% 29.73 in 10.0 mi WSW 9.2 mph 16.1 mph N/A   Clear
4:15 PM 71.8 °F 44.6 °F 38% 29.73 in 10.0 mi SW 6.9 mph - N/A   Clear
5:55 PM 67.6 °F 44.2 °F 43% 29.75 in 10.0 mi WSW 9.2 mph - N/A   Clear
6:15 PM 65.5 °F 45.1 °F 48% 29.76 in 10.0 mi West 8.1 mph - N/A   Clear
6:35 PM 61.7 °F 46.9 °F 58% 29.76 in 10.0 mi West 4.6 mph - N/A   Clear
6:55 PM 59.0 °F 46.6 °F 63% 29.77 in 10.0 mi Calm Calm - N/A   Clear
7:15 PM 58.1 °F 46.8 °F 66% 29.78 in 10.0 mi NNW 3.5 mph - N/A   Clear
7:35 PM 57.0 °F 46.9 °F 69% 29.79 in 10.0 mi NW 3.5 mph - N/A   Clear
7:55 PM 54.9 °F 46.9 °F 75% 29.79 in 10.0 mi NW 4.6 mph - N/A   Clear
8:15 PM 52.3 °F 46.8 °F 81% 29.80 in 10.0 mi Calm Calm - N/A   Clear
8:35 PM 50.5 °F 46.8 °F 87% 29.81 in 10.0 mi Calm Calm - N/A   Scattered Clouds
8:55 PM 50.4 °F 46.8 °F 87% 29.81 in 10.0 mi Calm Calm - N/A   Clear
9:15 PM 49.3 °F 46.0 °F 89% 29.82 in 10.0 mi Calm Calm - N/A   Clear
9:35 PM 48.6 °F 46.2 °F 92% 29.82 in 10.0 mi Calm Calm - N/A   Clear
9:55 PM 47.3 °F 45.7 °F 94% 29.83 in 10.0 mi Calm Calm - N/A   Clear
10:15 PM 46.2 °F 44.8 °F 95% 29.84 in 10.0 mi Calm Calm - N/A   Clear
10:35 PM 45.9 °F 44.6 °F 95% 29.84 in 10.0 mi Calm Calm - N/A   Clear
10:55 PM 46.2 °F 44.6 °F 94% 29.85 in 10.0 mi Calm Calm - N/A   Clear
11:15 PM 44.6 °F 43.5 °F 96% 29.85 in 10.0 mi Calm Calm - N/A   Clear
11:35 PM 44.2 °F 42.8 °F 95% 29.85 in 10.0 mi Calm Calm - N/A   Clear
11:55 PM 43.3 °F 42.6 °F 97% 29.85 in 10.0 mi Calm Calm - N/A   Clear